createdAt,value
2019-06-01T00:00:10.085Z,13.90
2019-06-01T00:00:53.200Z,16.80
2019-06-01T00:01:52.199Z,15.10
2019-06-01T00:02:55.843Z,13.10
2019-06-01T00:03:52.283Z,12.70
2019-06-01T00:04:52.150Z,14.80
2019-06-01T00:05:52.223Z,13.10
2019-06-01T00:06:52.133Z,14.30
2019-06-01T00:07:52.276Z,13.50
2019-06-01T00:08:52.106Z,14.80
2019-06-01T00:09:52.150Z,9.20
2019-06-01T00:10:52.078Z,10.00
2019-06-01T00:11:52.164Z,12.40
2019-06-01T00:12:52.087Z,10.90
2019-06-01T00:13:52.073Z,13.90
2019-06-01T00:14:52.041Z,16.80
2019-06-01T00:15:52.086Z,10.80
2019-06-01T00:16:52.015Z,11.60
2019-06-01T00:17:52.033Z,11.20
2019-06-01T00:18:51.998Z,14.10
2019-06-01T00:19:52.021Z,15.10
2019-06-01T00:20:52.732Z,16.90
2019-06-01T00:21:52.305Z,14.40
2019-06-01T00:22:51.964Z,18.90
2019-06-01T00:23:52.839Z,15.30
2019-06-01T00:24:52.264Z,17.10
2019-06-01T00:25:52.913Z,19.50
2019-06-01T00:26:52.120Z,16.50
2019-06-01T00:27:52.902Z,15.20
2019-06-01T00:28:53.024Z,19.40
2019-06-01T00:29:53.091Z,22.00
2019-06-01T00:30:52.078Z,21.70
2019-06-01T00:31:52.186Z,20.80
2019-06-01T00:32:51.848Z,25.90
2019-06-01T00:33:51.910Z,19.60
2019-06-01T00:34:51.926Z,17.40
2019-06-01T00:35:51.817Z,18.90
2019-06-01T00:36:52.039Z,22.00
2019-06-01T00:37:51.915Z,19.80
2019-06-01T00:38:52.146Z,15.00
2019-06-01T00:39:52.035Z,15.70
2019-06-01T00:40:52.075Z,17.70
2019-06-01T00:41:52.554Z,20.70
2019-06-01T00:42:52.464Z,19.80
2019-06-01T00:43:52.508Z,22.50
2019-06-01T00:44:52.514Z,19.60
2019-06-01T00:45:53.018Z,16.70
2019-06-01T00:46:52.786Z,17.30
2019-06-01T00:47:52.956Z,23.10
2019-06-01T00:48:52.120Z,16.70
2019-06-01T00:49:52.955Z,16.40
2019-06-01T00:50:51.629Z,19.00
2019-06-01T00:51:52.482Z,16.10
2019-06-01T00:52:51.622Z,12.20
2019-06-01T00:53:51.937Z,17.90
2019-06-01T00:54:51.778Z,19.30
2019-06-01T00:55:51.694Z,20.30
2019-06-01T00:56:51.766Z,19.20
2019-06-01T00:57:51.889Z,16.50
2019-06-01T00:58:52.003Z,25.00
2019-06-01T00:59:53.118Z,19.60
2019-06-01T01:00:53.423Z,20.90
2019-06-01T01:01:52.395Z,24.30
2019-06-01T01:02:52.220Z,18.80
2019-06-01T01:03:52.365Z,19.30
2019-06-01T01:04:52.494Z,16.10
2019-06-01T01:05:52.651Z,20.60
2019-06-01T01:06:52.711Z,25.60
2019-06-01T01:07:53.064Z,20.10
2019-06-01T01:08:51.426Z,18.90
2019-06-01T01:09:51.438Z,20.90
2019-06-01T01:10:51.407Z,17.30
2019-06-01T01:11:51.453Z,24.40
2019-06-01T01:12:51.380Z,32.50
2019-06-01T01:13:51.496Z,26.10
2019-06-01T01:14:51.380Z,20.90
2019-06-01T01:15:51.463Z,25.30
2019-06-01T01:16:51.691Z,21.20
2019-06-01T01:17:51.998Z,23.40
2019-06-01T01:18:51.944Z,20.60
2019-06-01T01:19:51.939Z,22.60
2019-06-01T01:20:52.054Z,25.60
2019-06-01T01:21:52.143Z,22.80
2019-06-01T01:22:52.241Z,18.10
2019-06-01T01:23:53.035Z,22.80
2019-06-01T01:24:52.323Z,22.50
2019-06-01T01:25:52.545Z,27.70
2019-06-01T01:26:51.238Z,20.30
2019-06-01T01:27:51.257Z,18.80
2019-06-01T01:28:51.222Z,23.60
2019-06-01T01:29:51.272Z,23.20
2019-06-01T01:31:05.546Z,25.80
2019-06-01T01:31:53.186Z,32.80
2019-06-01T01:32:51.773Z,29.10
2019-06-01T01:33:51.393Z,29.30
2019-06-01T01:34:51.555Z,31.10
2019-06-01T01:35:52.587Z,26.10
2019-06-01T01:36:52.722Z,25.00
2019-06-01T01:37:51.940Z,29.90
2019-06-01T01:38:52.224Z,29.90
2019-06-01T01:39:52.184Z,25.50
2019-06-01T01:40:52.105Z,24.90
2019-06-01T01:41:52.164Z,23.90
2019-06-01T01:42:52.273Z,23.50
2019-06-01T01:43:52.659Z,27.50
2019-06-01T01:44:51.066Z,28.80
2019-06-01T01:45:51.026Z,32.70
2019-06-01T01:46:51.092Z,28.80
2019-06-01T01:47:51.006Z,22.10
2019-06-01T01:48:51.964Z,22.30
2019-06-01T01:49:52.006Z,27.90
2019-06-01T01:50:52.287Z,34.40
2019-06-01T01:51:50.959Z,22.40
2019-06-01T01:52:51.026Z,26.70
2019-06-01T01:53:50.957Z,42.30
2019-06-01T01:54:51.039Z,35.80
2019-06-01T01:55:51.036Z,35.70
2019-06-01T01:56:52.073Z,36.80
2019-06-01T01:57:51.171Z,36.60
2019-06-01T01:58:52.197Z,38.10
2019-06-01T01:59:51.264Z,35.60
2019-06-01T02:00:52.949Z,43.60
2019-06-01T02:01:50.867Z,38.20
2019-06-01T02:02:51.831Z,37.80
2019-06-01T02:03:51.593Z,39.60
2019-06-01T02:04:51.687Z,31.50
2019-06-01T02:05:50.867Z,43.60
2019-06-01T02:06:51.850Z,32.00
2019-06-01T02:07:51.006Z,43.70
2019-06-01T02:08:53.371Z,44.90
2019-06-01T02:09:51.101Z,44.30
2019-06-01T02:10:51.198Z,40.90
2019-06-01T02:11:51.371Z,36.10
2019-06-01T02:12:51.346Z,33.50
2019-06-01T02:13:51.511Z,43.40
2019-06-01T02:14:51.647Z,45.20
2019-06-01T02:15:52.202Z,45.60
2019-06-01T02:16:51.970Z,43.40
2019-06-01T02:17:51.952Z,54.70
2019-06-01T02:18:53.838Z,49.10
2019-06-01T02:19:50.653Z,43.80
2019-06-01T02:20:50.693Z,57.00
2019-06-01T02:21:50.630Z,47.80
2019-06-01T02:22:50.711Z,55.30
2019-06-01T02:23:50.625Z,50.10
2019-06-01T02:24:50.633Z,45.20
2019-06-01T02:25:50.584Z,43.80
2019-06-01T02:26:50.636Z,47.40
2019-06-01T02:27:50.560Z,51.30
2019-06-01T02:28:50.575Z,45.70
2019-06-01T02:29:50.559Z,53.60
2019-06-01T02:30:50.668Z,49.90
2019-06-01T02:31:50.521Z,53.20
2019-06-01T02:32:50.577Z,58.00
2019-06-01T02:33:50.506Z,50.60
2019-06-01T02:34:50.598Z,40.00
2019-06-01T02:35:50.476Z,43.20
2019-06-01T02:36:50.505Z,54.80
2019-06-01T02:37:50.450Z,49.20
2019-06-01T02:38:50.544Z,50.10
2019-06-01T02:39:50.424Z,45.70
2019-06-01T02:40:50.547Z,36.90
2019-06-01T02:41:50.403Z,50.00
2019-06-01T02:42:50.435Z,38.70
2019-06-01T02:43:50.399Z,46.50
2019-06-01T02:44:50.454Z,44.90
2019-06-01T02:45:50.361Z,46.70
2019-06-01T02:46:50.378Z,41.00
2019-06-01T02:47:50.337Z,41.50
2019-06-01T02:48:50.407Z,46.00
2019-06-01T02:49:50.320Z,44.30
2019-06-01T02:50:50.399Z,45.00
2019-06-01T02:51:50.296Z,55.80
2019-06-01T02:52:50.300Z,41.50
2019-06-01T02:53:50.310Z,45.50
2019-06-01T02:54:50.313Z,43.80
2019-06-01T02:55:50.249Z,46.50
2019-06-01T02:56:50.328Z,45.40
2019-06-01T02:57:50.228Z,41.00
2019-06-01T02:58:50.242Z,42.20
2019-06-01T02:59:50.231Z,42.30
2019-06-01T03:00:50.252Z,41.50
2019-06-01T03:01:57.213Z,48.50
2019-06-01T03:02:51.172Z,44.90
2019-06-01T03:03:50.274Z,34.70
2019-06-01T03:04:50.166Z,34.10
2019-06-01T03:05:50.189Z,41.10
2019-06-01T03:06:50.126Z,42.30
2019-06-01T03:07:50.205Z,42.70
2019-06-01T03:08:50.105Z,41.00
2019-06-01T03:09:50.145Z,41.70
2019-06-01T03:10:50.082Z,51.50
2019-06-01T03:11:50.124Z,46.30
2019-06-01T03:12:50.061Z,43.50
2019-06-01T03:13:50.137Z,41.70
2019-06-01T03:14:50.051Z,29.30
2019-06-01T03:15:50.049Z,43.90
2019-06-01T03:16:50.019Z,52.60
2019-06-01T03:17:50.065Z,47.00
2019-06-01T03:18:49.994Z,43.80
2019-06-01T03:19:50.114Z,44.30
2019-06-01T03:20:49.972Z,42.20
2019-06-01T03:21:49.990Z,46.00
2019-06-01T03:22:49.949Z,40.10
2019-06-01T03:23:50.005Z,35.80
2019-06-01T03:24:49.953Z,41.60
2019-06-01T03:25:50.018Z,42.20
2019-06-01T03:26:49.949Z,47.60
2019-06-01T03:27:49.929Z,45.70
2019-06-01T03:28:49.885Z,35.70
2019-06-01T03:29:49.971Z,39.20
2019-06-01T03:30:49.867Z,45.30
2019-06-01T03:31:49.958Z,38.30
2019-06-01T03:32:49.858Z,40.60
2019-06-01T03:33:49.868Z,32.20
2019-06-01T03:34:49.831Z,37.90
2019-06-01T03:35:49.883Z,33.20
2019-06-01T03:36:49.792Z,35.90
2019-06-01T03:37:49.892Z,35.50
2019-06-01T03:38:49.771Z,36.30
2019-06-01T03:39:50.860Z,34.50
2019-06-01T03:40:49.749Z,29.80
2019-06-01T03:41:50.841Z,30.00
2019-06-01T03:42:49.726Z,34.70
2019-06-01T03:43:49.834Z,36.30
2019-06-01T03:44:49.726Z,31.10
2019-06-01T03:45:49.744Z,32.90
2019-06-01T03:46:49.680Z,32.80
2019-06-01T03:47:49.754Z,34.80
2019-06-01T03:48:49.660Z,29.80
2019-06-01T03:49:49.701Z,32.10
2019-06-01T03:50:49.638Z,31.60
2019-06-01T03:51:49.697Z,31.50
2019-06-01T03:52:49.614Z,27.10
2019-06-01T03:53:49.698Z,30.30
2019-06-01T03:54:49.605Z,26.60
2019-06-01T03:55:49.610Z,28.40
2019-06-01T03:56:49.566Z,29.20
2019-06-01T03:57:49.620Z,29.30
2019-06-01T03:58:49.545Z,28.60
2019-06-01T03:59:49.565Z,26.90
2019-06-01T04:00:49.525Z,27.50
2019-06-01T04:01:49.547Z,24.90
2019-06-01T04:02:49.501Z,21.50
2019-06-01T04:03:49.559Z,22.50
2019-06-01T04:04:49.493Z,23.70
2019-06-01T04:05:49.581Z,25.00
2019-06-01T04:06:49.465Z,21.40
2019-06-01T04:07:49.484Z,21.30
2019-06-01T04:08:49.433Z,19.20
2019-06-01T04:09:49.529Z,20.90
2019-06-01T04:10:49.409Z,20.50
2019-06-01T04:11:49.518Z,28.10
2019-06-01T04:12:49.385Z,23.30
2019-06-01T04:13:49.424Z,19.40
2019-06-01T04:14:49.362Z,19.40
2019-06-01T04:15:49.472Z,20.70
2019-06-01T04:16:49.340Z,19.00
2019-06-01T04:17:49.349Z,16.50
2019-06-01T04:18:49.316Z,21.10
2019-06-01T04:19:49.370Z,23.40
2019-06-01T04:20:49.311Z,19.30
2019-06-01T04:21:50.404Z,22.10
2019-06-01T04:22:49.273Z,16.40
2019-06-01T04:23:56.356Z,17.80
2019-06-01T04:24:49.249Z,18.70
2019-06-01T04:25:51.279Z,17.60
2019-06-01T04:26:49.227Z,16.60
2019-06-01T04:27:50.223Z,20.50
2019-06-01T04:28:49.209Z,16.50
2019-06-01T04:29:49.228Z,15.40
2019-06-01T04:30:49.199Z,17.40
2019-06-01T04:31:49.243Z,17.10
2019-06-01T04:32:50.482Z,17.20
2019-06-01T04:33:49.255Z,18.80
2019-06-01T04:34:49.142Z,15.70
2019-06-01T04:35:49.202Z,19.20
2019-06-01T04:36:49.119Z,22.70
2019-06-01T04:37:49.185Z,17.40
2019-06-01T04:38:49.093Z,14.90
2019-06-01T04:39:49.196Z,16.90
2019-06-01T04:40:49.086Z,17.60
2019-06-01T04:41:49.112Z,14.80
2019-06-01T04:42:49.075Z,13.90
2019-06-01T04:43:49.119Z,13.30
2019-06-01T04:44:49.028Z,17.40
2019-06-01T04:45:49.063Z,17.10
2019-06-01T04:46:49.010Z,13.80
2019-06-01T04:47:49.048Z,19.50
2019-06-01T04:48:48.985Z,15.40
2019-06-01T04:49:49.073Z,14.90
2019-06-01T04:50:48.987Z,13.80
2019-06-01T04:51:48.969Z,12.30
2019-06-01T04:52:48.938Z,14.30
2019-06-01T04:53:48.987Z,13.10
2019-06-01T04:54:48.917Z,18.30
2019-06-01T04:55:49.031Z,15.10
2019-06-01T04:56:48.897Z,11.70
2019-06-01T04:57:48.907Z,12.80
2019-06-01T04:58:48.871Z,16.80
2019-06-01T04:59:48.923Z,11.70
2019-06-01T05:00:48.869Z,13.40
2019-06-01T05:01:48.843Z,14.80
2019-06-01T05:02:56.578Z,12.80
2019-06-01T05:03:49.813Z,14.50
2019-06-01T05:04:48.913Z,12.90
2019-06-01T05:05:48.806Z,15.20
2019-06-01T05:06:49.896Z,12.40
2019-06-01T05:07:48.770Z,12.30
2019-06-01T05:08:48.790Z,12.10
2019-06-01T05:09:48.748Z,14.10
2019-06-01T05:10:51.794Z,13.10
2019-06-01T05:11:48.724Z,13.20
2019-06-01T05:12:50.757Z,13.30
2019-06-01T05:13:48.702Z,10.90
2019-06-01T05:14:48.719Z,13.80
2019-06-01T05:15:48.694Z,14.10
2019-06-01T05:16:48.733Z,12.10
2019-06-01T05:17:48.659Z,12.90
2019-06-01T05:18:48.745Z,12.70
2019-06-01T05:19:48.636Z,12.80
2019-06-01T05:20:48.707Z,11.80
2019-06-01T05:21:48.612Z,11.00
2019-06-01T05:22:48.674Z,10.90
2019-06-01T05:23:48.599Z,10.90
2019-06-01T05:24:48.687Z,11.70
2019-06-01T05:25:48.610Z,13.40
2019-06-01T05:26:48.605Z,9.70
2019-06-01T05:27:48.548Z,11.00
2019-06-01T05:28:48.607Z,14.20
2019-06-01T05:29:48.524Z,10.90
2019-06-01T05:30:48.621Z,11.00
2019-06-01T05:31:48.514Z,11.20
2019-06-01T05:32:48.537Z,11.00
2019-06-01T05:33:48.484Z,13.20
2019-06-01T05:34:48.545Z,12.70
2019-06-01T05:35:48.457Z,13.90
2019-06-01T05:36:48.623Z,14.50
2019-06-01T05:37:48.438Z,11.60
2019-06-01T05:38:48.479Z,11.80
2019-06-01T05:39:48.412Z,11.10
2019-06-01T05:40:48.488Z,14.60
2019-06-01T05:41:48.416Z,11.40
2019-06-01T05:42:48.397Z,9.10
2019-06-01T05:43:48.368Z,12.50
2019-06-01T05:44:48.410Z,12.20
2019-06-01T05:45:48.356Z,12.70
2019-06-01T05:46:48.459Z,10.30
2019-06-01T05:47:48.328Z,16.30
2019-06-01T05:48:48.339Z,13.80
2019-06-01T05:49:48.303Z,10.90
2019-06-01T05:50:48.348Z,9.60
2019-06-01T05:51:48.309Z,12.00
2019-06-01T05:52:48.363Z,11.60
2019-06-01T05:53:48.257Z,9.20
2019-06-01T05:54:48.276Z,10.10
2019-06-01T05:55:48.235Z,9.40
2019-06-01T05:56:48.321Z,8.90
2019-06-01T05:57:48.213Z,8.80
2019-06-01T05:58:49.224Z,11.70
2019-06-01T05:59:48.193Z,7.40
2019-06-01T06:00:48.212Z,10.10
2019-06-01T06:01:48.183Z,10.00
2019-06-01T06:02:48.226Z,9.50
2019-06-01T06:03:48.152Z,9.20
2019-06-01T06:04:48.240Z,13.00
2019-06-01T06:05:48.129Z,9.50
2019-06-01T06:06:48.184Z,10.30
2019-06-01T06:07:48.106Z,11.90
2019-06-01T06:08:48.164Z,8.80
2019-06-01T06:09:48.087Z,8.80
2019-06-01T06:10:48.178Z,9.10
2019-06-01T06:11:48.075Z,8.70
2019-06-01T06:12:48.092Z,8.50
2019-06-01T06:13:48.040Z,10.00
2019-06-01T06:14:48.105Z,10.90
2019-06-01T06:15:48.020Z,9.60
2019-06-01T06:16:48.054Z,8.70
2019-06-01T06:17:47.995Z,11.10
2019-06-01T06:18:48.027Z,7.60
2019-06-01T06:19:47.975Z,8.70
2019-06-01T06:20:48.052Z,8.90
2019-06-01T06:21:47.966Z,7.80
2019-06-01T06:22:47.953Z,9.50
2019-06-01T06:23:47.983Z,8.40
2019-06-01T06:24:47.973Z,11.40
2019-06-01T06:25:47.910Z,7.10
2019-06-01T06:26:48.013Z,7.10
2019-06-01T06:27:47.893Z,7.60
2019-06-01T06:28:47.892Z,7.40
2019-06-01T06:29:47.864Z,7.30
2019-06-01T06:30:47.905Z,7.10
2019-06-01T06:31:47.863Z,7.10
2019-06-01T06:32:47.922Z,9.50
2019-06-01T06:33:56.394Z,6.70
2019-06-01T06:34:48.804Z,7.70
2019-06-01T06:36:02.787Z,6.90
2019-06-01T06:36:47.798Z,7.20
2019-06-01T06:37:47.860Z,7.00
2019-06-01T06:38:47.773Z,7.10
2019-06-01T06:39:47.864Z,6.10
2019-06-01T06:40:47.758Z,6.60
2019-06-01T06:41:47.837Z,5.90
2019-06-01T06:42:47.720Z,6.50
2019-06-01T06:43:47.788Z,6.20
2019-06-01T06:44:47.700Z,8.70
2019-06-01T06:45:48.727Z,6.00
2019-06-01T06:46:47.693Z,6.40
2019-06-01T06:47:47.712Z,6.20
2019-06-01T06:48:47.662Z,5.80
2019-06-01T06:49:47.729Z,5.60
2019-06-01T06:50:47.636Z,5.30
2019-06-01T06:51:47.668Z,6.30
2019-06-01T06:52:47.618Z,7.20
2019-06-01T06:53:47.651Z,9.20
2019-06-01T06:54:47.590Z,5.40
2019-06-01T06:55:47.664Z,5.40
2019-06-01T06:56:47.606Z,6.10
2019-06-01T06:57:47.590Z,5.70
2019-06-01T06:58:47.558Z,10.20
2019-06-01T06:59:47.593Z,5.70
2019-06-01T07:00:47.591Z,7.10
2019-06-01T07:01:47.609Z,6.10
2019-06-01T07:02:47.526Z,6.20
2019-06-01T07:03:47.518Z,5.40
2019-06-01T07:04:47.498Z,6.10
2019-06-01T07:05:47.538Z,5.80
2019-06-01T07:06:47.460Z,7.40
2019-06-01T07:07:47.573Z,5.50
2019-06-01T07:08:49.014Z,7.10
2019-06-01T07:09:47.461Z,5.20
2019-06-01T07:10:47.418Z,6.30
2019-06-01T07:11:47.466Z,5.90
2019-06-01T07:12:47.418Z,6.70
2019-06-01T07:13:47.498Z,6.40
2019-06-01T07:14:47.387Z,9.80
2019-06-01T07:15:47.410Z,6.80
2019-06-01T07:16:47.357Z,6.30
2019-06-01T07:17:47.458Z,5.50
2019-06-01T07:18:47.337Z,5.70
2019-06-01T07:19:47.448Z,7.90
2019-06-01T07:20:47.303Z,7.10
2019-06-01T07:21:54.293Z,6.00
2019-06-01T07:22:47.311Z,5.60
2019-06-01T07:23:48.370Z,5.80
2019-06-01T07:24:47.281Z,5.40
2019-06-01T07:25:47.380Z,5.10
2019-06-01T07:26:47.243Z,6.30
2019-06-01T07:27:47.314Z,8.40
2019-06-01T07:28:47.230Z,6.20
2019-06-01T07:29:47.287Z,5.40
2019-06-01T07:30:50.469Z,6.70
2019-06-01T07:31:47.194Z,7.80
2019-06-01T07:32:47.183Z,4.90
2019-06-01T07:33:47.216Z,6.70
2019-06-01T07:34:47.152Z,5.60
2019-06-01T07:35:47.224Z,5.40
2019-06-01T07:36:47.146Z,5.10
2019-06-01T07:37:47.165Z,8.10
2019-06-01T07:38:47.106Z,6.00
2019-06-01T07:39:47.157Z,5.20
2019-06-01T07:40:47.081Z,5.50
2019-06-01T07:41:47.247Z,6.10
2019-06-01T07:42:47.073Z,5.90
2019-06-01T07:43:47.071Z,7.20
2019-06-01T07:44:47.038Z,7.20
2019-06-01T07:45:47.109Z,5.50
2019-06-01T07:46:47.060Z,5.00
2019-06-01T07:47:47.029Z,5.50
2019-06-01T07:48:47.003Z,4.70
2019-06-01T07:49:47.022Z,5.30
2019-06-01T07:50:46.969Z,5.60
2019-06-01T07:51:47.188Z,5.60
2019-06-01T07:52:46.961Z,6.00
2019-06-01T07:53:47.038Z,8.30
2019-06-01T07:54:46.937Z,7.10
2019-06-01T07:55:46.955Z,4.80
2019-06-01T07:56:46.910Z,4.70
2019-06-01T07:57:47.014Z,9.20
2019-06-01T07:58:46.885Z,8.00
2019-06-01T07:59:46.979Z,5.60
2019-06-01T08:00:46.862Z,4.40
2019-06-01T08:01:46.890Z,5.20
2019-06-01T08:02:46.874Z,5.50
2019-06-01T08:03:47.928Z,4.20
2019-06-01T08:04:53.358Z,7.40
2019-06-01T08:05:54.805Z,7.50
2019-06-01T08:06:48.560Z,4.90
2019-06-01T08:07:48.886Z,4.60
2019-06-01T08:08:46.791Z,5.00
2019-06-01T08:09:48.808Z,4.60
2019-06-01T08:10:46.752Z,5.20
2019-06-01T08:11:46.753Z,4.90
2019-06-01T08:12:46.732Z,4.20
2019-06-01T08:13:46.795Z,7.40
2019-06-01T08:14:46.710Z,6.00
2019-06-01T08:15:46.801Z,4.90
2019-06-01T08:16:46.685Z,5.00
2019-06-01T08:17:46.701Z,7.00
2019-06-01T08:18:46.681Z,4.70
2019-06-01T08:19:46.704Z,4.40
2019-06-01T08:20:46.641Z,5.70
2019-06-01T08:21:46.717Z,4.90
2019-06-01T08:22:46.644Z,4.50
2019-06-01T08:23:46.659Z,5.20
2019-06-01T08:24:46.603Z,7.40
2019-06-01T08:25:46.643Z,4.70
2019-06-01T08:26:46.576Z,3.90
2019-06-01T08:27:46.658Z,6.00
2019-06-01T08:28:46.574Z,4.50
2019-06-01T08:29:46.578Z,5.00
2019-06-01T08:30:46.536Z,4.40
2019-06-01T08:31:46.584Z,4.90
2019-06-01T08:32:46.520Z,4.70
2019-06-01T08:33:46.629Z,6.30
2019-06-01T08:34:46.502Z,3.80
2019-06-01T08:35:46.510Z,4.00
2019-06-01T08:36:46.469Z,4.70
2019-06-01T08:37:46.531Z,4.20
2019-06-01T08:38:46.475Z,5.80
2019-06-01T08:39:46.534Z,3.30
2019-06-01T08:40:46.434Z,5.50
2019-06-01T08:41:46.458Z,3.80
2019-06-01T08:42:46.404Z,5.70
2019-06-01T08:43:46.498Z,5.40
2019-06-01T08:44:46.388Z,8.80
2019-06-01T08:45:46.472Z,6.50
2019-06-01T08:46:46.378Z,3.70
2019-06-01T08:47:46.383Z,3.40
2019-06-01T08:48:46.352Z,3.70
2019-06-01T08:49:48.450Z,3.70
2019-06-01T08:50:46.436Z,3.50
2019-06-01T08:51:48.357Z,3.70
2019-06-01T08:52:46.314Z,4.10
2019-06-01T08:53:46.353Z,5.20
2019-06-01T08:54:46.272Z,3.70
2019-06-01T08:55:48.284Z,5.40
2019-06-01T08:56:46.256Z,4.30
2019-06-01T08:57:47.288Z,3.90
2019-06-01T08:58:46.265Z,4.90
2019-06-01T08:59:46.266Z,3.80
2019-06-01T09:00:46.211Z,4.60
2019-06-01T09:01:46.284Z,3.80
2019-06-01T09:02:46.192Z,3.90
2019-06-01T09:03:47.061Z,4.40
2019-06-01T09:04:46.184Z,6.30
2019-06-01T09:05:46.199Z,4.20
2019-06-01T09:06:46.147Z,4.80
2019-06-01T09:07:46.214Z,3.60
2019-06-01T09:08:46.133Z,4.00
2019-06-01T09:09:46.157Z,3.90
2019-06-01T09:10:46.102Z,4.30
2019-06-01T09:11:46.143Z,4.30
2019-06-01T09:12:46.079Z,3.70
2019-06-01T09:13:46.161Z,3.70
2019-06-01T09:14:46.077Z,7.40
2019-06-01T09:15:46.082Z,4.40
2019-06-01T09:16:46.044Z,4.00
2019-06-01T09:17:46.089Z,3.90
2019-06-01T09:18:46.016Z,3.70
2019-06-01T09:19:46.125Z,5.40
2019-06-01T09:20:46.007Z,3.90
2019-06-01T09:21:46.008Z,3.70
2019-06-01T09:22:48.197Z,3.50
2019-06-01T09:23:46.020Z,5.60
2019-06-01T09:24:45.963Z,4.60
2019-06-01T09:25:46.032Z,3.70
2019-06-01T09:26:45.947Z,3.40
2019-06-01T09:27:45.928Z,4.80
2019-06-01T09:28:45.917Z,3.60
2019-06-01T09:29:45.988Z,5.50
2019-06-01T09:30:45.897Z,4.60
2019-06-01T09:31:45.976Z,4.10
2019-06-01T09:32:45.874Z,3.60
2019-06-01T09:34:00.847Z,4.00
2019-06-01T09:34:45.859Z,3.80
2019-06-01T09:36:07.913Z,4.30
2019-06-01T09:36:45.838Z,4.50
2019-06-01T09:37:46.851Z,4.10
2019-06-01T09:38:45.816Z,3.90
2019-06-01T09:39:45.851Z,4.60
2019-06-01T09:40:45.858Z,4.30
2019-06-01T09:41:45.849Z,4.10
2019-06-01T09:42:45.766Z,4.10
2019-06-01T09:43:46.773Z,5.00
2019-06-01T09:44:45.786Z,3.60
2019-06-01T09:45:45.773Z,4.20
2019-06-01T09:46:45.730Z,4.00
2019-06-01T09:47:46.167Z,6.70
2019-06-01T09:48:45.714Z,4.40
2019-06-01T09:49:45.821Z,5.20
2019-06-01T09:50:45.687Z,6.30
2019-06-01T09:51:45.704Z,4.70
2019-06-01T09:52:45.675Z,4.30
2019-06-01T09:53:45.711Z,4.50
2019-06-01T09:54:45.656Z,5.00
2019-06-01T09:55:45.725Z,4.80
2019-06-01T09:56:45.629Z,4.20
2019-06-01T09:57:45.651Z,5.60
2019-06-01T09:58:45.604Z,3.60
2019-06-01T09:59:45.693Z,4.00
2019-06-01T10:00:45.583Z,3.60
2019-06-01T10:01:45.695Z,3.80
2019-06-01T10:02:45.581Z,5.10
2019-06-01T10:03:45.585Z,4.60
2019-06-01T10:04:45.546Z,4.30
2019-06-01T10:06:00.874Z,4.20
2019-06-01T10:06:46.514Z,4.30
2019-06-01T10:07:45.612Z,4.30
2019-06-01T10:08:45.509Z,3.90
2019-06-01T10:09:45.545Z,5.80
2019-06-01T10:10:45.474Z,3.80
2019-06-01T10:11:45.539Z,4.10
2019-06-01T10:12:45.455Z,3.70
2019-06-01T10:13:45.553Z,4.00
2019-06-01T10:14:45.452Z,4.10
2019-06-01T10:15:45.460Z,3.50
2019-06-01T10:16:45.411Z,3.50
2019-06-01T10:17:45.482Z,5.30
2019-06-01T10:18:45.388Z,3.40
2019-06-01T10:20:00.893Z,3.30
2019-06-01T10:20:45.364Z,3.50
2019-06-01T10:21:46.419Z,3.70
2019-06-01T10:22:45.349Z,3.90
2019-06-01T10:23:49.638Z,3.90
2019-06-01T10:24:45.337Z,3.50
2019-06-01T10:25:46.345Z,3.20
2019-06-01T10:26:45.305Z,3.10
2019-06-01T10:27:45.336Z,2.70
2019-06-01T10:28:45.299Z,4.80
2019-06-01T10:29:45.374Z,4.00
2019-06-01T10:30:45.315Z,3.10
2019-06-01T10:31:45.355Z,3.70
2019-06-01T10:32:45.239Z,3.50
2019-06-01T10:33:45.274Z,3.30
2019-06-01T10:34:45.239Z,3.60
2019-06-01T10:35:45.281Z,3.30
2019-06-01T10:36:45.198Z,3.50
2019-06-01T10:37:45.294Z,3.80
2019-06-01T10:38:45.227Z,4.60
2019-06-01T10:39:45.241Z,3.80
2019-06-01T10:40:45.151Z,4.50
2019-06-01T10:41:45.221Z,4.50
2019-06-01T10:42:45.143Z,4.50
2019-06-01T10:43:45.234Z,4.20
2019-06-01T10:44:46.000Z,4.20
2019-06-01T10:45:45.152Z,3.60
2019-06-01T10:46:45.096Z,4.00
2019-06-01T10:47:45.168Z,3.00
2019-06-01T10:48:45.070Z,4.50
2019-06-01T10:49:45.106Z,3.60
2019-06-01T10:50:45.048Z,3.40
2019-06-01T10:51:45.089Z,3.50
2019-06-01T10:52:45.028Z,3.70
2019-06-01T10:53:45.104Z,3.20
2019-06-01T10:54:45.025Z,3.10
2019-06-01T10:55:45.126Z,3.40
2019-06-01T10:56:44.988Z,4.10
2019-06-01T10:57:45.037Z,3.30
2019-06-01T10:58:59.218Z,3.00
2019-06-01T10:59:45.970Z,3.30
2019-06-01T11:00:50.652Z,2.80
2019-06-01T11:01:45.943Z,3.70
2019-06-01T11:02:44.956Z,4.10
2019-06-01T11:03:44.921Z,3.50
2019-06-01T11:04:45.002Z,3.10
2019-06-01T11:05:44.895Z,3.20
2019-06-01T11:06:48.695Z,3.40
2019-06-01T11:07:44.876Z,3.10
2019-06-01T11:08:44.917Z,3.00
2019-06-01T11:09:44.905Z,3.20
2019-06-01T11:10:51.879Z,3.20
2019-06-01T11:11:44.833Z,3.40
2019-06-01T11:12:45.850Z,3.00
2019-06-01T11:13:44.814Z,3.80
2019-06-01T11:14:44.844Z,2.80
2019-06-01T11:15:44.810Z,3.20
2019-06-01T11:16:44.849Z,2.90
2019-06-01T11:17:44.801Z,4.10
2019-06-01T11:18:44.864Z,3.20
2019-06-01T11:19:44.764Z,3.70
2019-06-01T11:20:44.821Z,4.00
2019-06-01T11:21:44.734Z,3.20
2019-06-01T11:22:44.796Z,3.10
2019-06-01T11:23:46.534Z,2.90
2019-06-01T11:24:44.803Z,3.10
2019-06-01T11:25:44.707Z,2.50
2019-06-01T11:26:44.712Z,3.70
2019-06-01T11:27:44.675Z,2.80
2019-06-01T11:28:44.750Z,4.00
2019-06-01T11:29:51.059Z,2.50
2019-06-01T11:30:45.716Z,2.40
2019-06-01T11:31:44.628Z,3.40
2019-06-01T11:32:45.190Z,3.30
2019-06-01T11:33:44.608Z,3.50
2019-06-01T11:34:44.670Z,3.00
2019-06-01T11:35:45.398Z,4.50
2019-06-01T11:37:03.540Z,3.00
2019-06-01T11:37:45.560Z,3.10
2019-06-01T11:38:45.022Z,3.00
2019-06-01T11:39:44.862Z,2.80
2019-06-01T11:40:44.881Z,3.30
2019-06-01T11:41:44.827Z,3.00
2019-06-01T11:42:45.151Z,2.90
2019-06-01T11:43:46.142Z,3.70
2019-06-01T11:44:44.895Z,3.60
2019-06-01T11:45:45.206Z,3.90
2019-06-01T11:46:45.098Z,3.60
2019-06-01T11:47:45.088Z,4.10
2019-06-01T11:48:45.403Z,3.20
2019-06-01T11:49:45.080Z,3.00
2019-06-01T11:50:45.361Z,3.30
2019-06-01T11:51:45.303Z,3.60
2019-06-01T11:52:45.512Z,2.80
2019-06-01T11:53:45.654Z,2.80
2019-06-01T11:54:45.465Z,3.20
2019-06-01T11:55:45.559Z,3.60
2019-06-01T11:56:51.377Z,3.60
2019-06-01T11:57:45.783Z,3.80
2019-06-01T11:58:46.365Z,3.40
2019-06-01T11:59:45.596Z,3.80
2019-06-01T12:00:45.797Z,3.20
2019-06-01T12:01:44.307Z,2.90
2019-06-01T12:02:44.347Z,3.80
2019-06-01T12:03:44.289Z,4.50
2019-06-01T12:04:44.364Z,5.00
2019-06-01T12:05:44.294Z,3.90
2019-06-01T12:06:44.372Z,2.40
2019-06-01T12:07:44.245Z,2.90
2019-06-01T12:08:44.285Z,2.70
2019-06-01T12:09:44.229Z,4.40
2019-06-01T12:10:45.298Z,5.40
2019-06-01T12:11:44.344Z,4.90
2019-06-01T12:12:44.449Z,3.50
2019-06-01T12:13:44.520Z,3.70
2019-06-01T12:14:44.496Z,3.30
2019-06-01T12:15:44.468Z,2.80
2019-06-01T12:16:44.773Z,2.50
2019-06-01T12:17:44.881Z,2.50
2019-06-01T12:18:44.714Z,2.40
2019-06-01T12:19:44.743Z,2.20
2019-06-01T12:20:44.942Z,2.70
2019-06-01T12:21:45.229Z,2.00
2019-06-01T12:22:45.134Z,1.80
2019-06-01T12:23:45.519Z,2.00
2019-06-01T12:24:45.086Z,1.70
2019-06-01T12:25:44.430Z,2.00
2019-06-01T12:26:45.401Z,1.90
2019-06-01T12:27:44.041Z,2.70
2019-06-01T12:28:44.113Z,4.80
2019-06-01T12:29:44.035Z,2.60
2019-06-01T12:30:44.073Z,2.70
2019-06-01T12:31:43.999Z,2.10
2019-06-01T12:32:44.222Z,2.00
2019-06-01T12:33:44.241Z,2.00
2019-06-01T12:34:44.107Z,1.90
2019-06-01T12:35:44.083Z,2.20
2019-06-01T12:36:44.613Z,2.00
2019-06-01T12:38:02.114Z,2.10
2019-06-01T12:38:44.931Z,1.80
2019-06-01T12:39:44.438Z,2.30
2019-06-01T12:40:43.907Z,2.40
2019-06-01T12:41:47.865Z,3.00
2019-06-01T12:42:44.226Z,4.90
2019-06-01T12:43:51.917Z,2.60
2019-06-01T12:44:43.870Z,2.50
2019-06-01T12:46:05.426Z,1.90
2019-06-01T12:46:44.865Z,2.00
2019-06-01T12:47:48.333Z,2.20
2019-06-01T12:48:44.823Z,2.10
2019-06-01T12:49:44.104Z,2.20
2019-06-01T12:50:47.753Z,2.10
2019-06-01T12:51:44.915Z,2.00
2019-06-01T12:52:44.413Z,2.20
2019-06-01T12:53:44.467Z,2.10
2019-06-01T12:54:44.658Z,1.80
2019-06-01T12:55:45.210Z,2.10
2019-06-01T12:56:44.783Z,2.70
2019-06-01T12:57:44.889Z,1.90
2019-06-01T12:58:43.887Z,2.00
2019-06-01T12:59:45.113Z,2.10
2019-06-01T13:00:44.179Z,2.30
2019-06-01T13:01:45.096Z,2.20
2019-06-01T13:02:46.269Z,1.70
2019-06-01T13:03:45.256Z,1.90
2019-06-01T13:04:44.851Z,2.30
2019-06-01T13:05:43.682Z,2.70